createdAt,value
2019-05-13T00:00:15.139Z,2.03
2019-05-13T00:02:44.023Z,1.93
2019-05-13T00:05:14.629Z,1.90
2019-05-13T00:07:44.021Z,1.30
2019-05-13T00:10:14.928Z,1.70
2019-05-13T00:12:44.754Z,2.13
2019-05-13T00:15:15.579Z,1.67
2019-05-13T00:17:44.772Z,1.70
2019-05-13T00:20:14.311Z,1.50
2019-05-13T00:22:44.735Z,1.77
2019-05-13T00:25:14.504Z,1.50
2019-05-13T00:27:44.500Z,1.40
2019-05-13T00:30:14.564Z,1.90
2019-05-13T00:32:44.573Z,1.90
2019-05-13T00:35:14.168Z,2.00
2019-05-13T00:37:44.252Z,1.53
2019-05-13T00:40:14.371Z,1.67
2019-05-13T00:42:44.077Z,1.53
2019-05-13T00:45:14.558Z,1.80
2019-05-13T00:47:43.862Z,1.93
2019-05-13T00:50:14.228Z,1.77
2019-05-13T00:52:44.934Z,1.90
2019-05-13T00:55:14.861Z,2.10
2019-05-13T00:57:44.079Z,2.03
2019-05-13T01:00:14.025Z,1.70
2019-05-13T01:02:44.590Z,2.07
2019-05-13T01:05:14.612Z,1.80
2019-05-13T01:07:44.327Z,1.80
2019-05-13T01:10:13.822Z,1.90
2019-05-13T01:12:44.012Z,1.53
2019-05-13T01:15:13.458Z,1.73
2019-05-13T01:17:44.729Z,1.57
2019-05-13T01:20:14.459Z,1.80
2019-05-13T01:22:44.097Z,2.10
2019-05-13T01:25:14.521Z,1.80
2019-05-13T01:27:44.445Z,2.10
2019-05-13T01:30:13.707Z,1.50
2019-05-13T01:32:44.642Z,2.23
2019-05-13T01:35:14.837Z,1.97
2019-05-13T01:37:46.211Z,1.50
2019-05-13T01:40:14.720Z,1.90
2019-05-13T01:42:44.470Z,2.47
2019-05-13T01:45:14.145Z,2.07
2019-05-13T01:47:44.184Z,1.83
2019-05-13T01:50:14.397Z,1.63
2019-05-13T01:52:44.541Z,1.70
2019-05-13T01:55:14.481Z,2.03
2019-05-13T01:57:44.444Z,1.90
2019-05-13T02:00:14.418Z,1.63
2019-05-13T02:02:44.535Z,2.00
2019-05-13T02:05:14.243Z,1.93
2019-05-13T02:07:56.545Z,1.80
2019-05-13T02:10:15.787Z,2.13
2019-05-13T02:12:45.010Z,1.97
2019-05-13T02:15:14.834Z,2.10
2019-05-13T02:17:44.694Z,2.10
2019-05-13T02:20:14.964Z,2.60
2019-05-13T02:22:44.552Z,2.40
2019-05-13T02:25:13.991Z,2.27
2019-05-13T02:27:43.962Z,1.70
2019-05-13T02:30:16.183Z,1.90
2019-05-13T02:32:43.451Z,2.27
2019-05-13T02:35:13.992Z,1.90
2019-05-13T02:37:43.832Z,2.10
2019-05-13T02:40:13.880Z,2.20
2019-05-13T02:42:43.631Z,2.00
2019-05-13T02:45:13.376Z,2.20
2019-05-13T02:47:44.331Z,2.60
2019-05-13T02:50:13.201Z,2.43
2019-05-13T02:52:44.323Z,2.50
2019-05-13T02:55:12.627Z,2.20
2019-05-13T02:57:43.599Z,1.93
2019-05-13T03:00:13.215Z,2.33
2019-05-13T03:02:43.817Z,2.17
2019-05-13T03:05:13.981Z,2.07
2019-05-13T03:07:43.126Z,2.60
2019-05-13T03:10:13.566Z,2.47
2019-05-13T03:12:43.034Z,2.37
2019-05-13T03:15:13.228Z,2.20
2019-05-13T03:17:52.886Z,1.80
2019-05-13T03:20:22.996Z,3.10
2019-05-13T03:22:52.571Z,2.57
2019-05-13T03:25:22.672Z,2.20
2019-05-13T03:27:53.975Z,2.70
2019-05-13T03:30:25.197Z,2.07
2019-05-13T03:33:00.531Z,2.20
2019-05-13T03:35:26.843Z,2.60
2019-05-13T03:37:53.370Z,2.43
2019-05-13T03:40:23.270Z,2.27
2019-05-13T03:42:53.641Z,2.80
2019-05-13T03:45:24.630Z,2.23
2019-05-13T03:47:55.763Z,2.70
2019-05-13T03:50:24.286Z,2.50
2019-05-13T03:52:52.967Z,2.53
2019-05-13T03:55:23.434Z,2.50
2019-05-13T03:57:53.350Z,2.30
2019-05-13T04:00:23.650Z,2.10
2019-05-13T04:02:53.159Z,2.00
2019-05-13T04:05:23.265Z,2.43
2019-05-13T04:07:52.643Z,1.97
2019-05-13T04:10:23.029Z,2.47
2019-05-13T04:12:53.001Z,2.37
2019-05-13T04:15:23.740Z,2.63
2019-05-13T04:17:53.272Z,2.20
2019-05-13T04:20:23.229Z,2.70
2019-05-13T04:22:53.363Z,2.30
2019-05-13T04:25:23.154Z,2.40
2019-05-13T04:27:53.528Z,2.60
2019-05-13T04:30:22.785Z,2.30
2019-05-13T04:32:53.282Z,2.57
2019-05-13T04:35:23.350Z,2.50
2019-05-13T04:37:52.936Z,2.50
2019-05-13T04:40:23.015Z,2.50
2019-05-13T04:42:53.540Z,2.37
2019-05-13T04:45:24.038Z,2.67
2019-05-13T04:47:53.067Z,3.33
2019-05-13T04:50:22.725Z,2.90
2019-05-13T04:52:53.051Z,2.30
2019-05-13T04:55:22.973Z,3.00
2019-05-13T04:57:53.266Z,3.00
2019-05-13T05:00:50.042Z,3.03
2019-05-13T05:03:32.054Z,2.90
2019-05-13T05:05:57.168Z,2.77
2019-05-13T05:08:52.766Z,2.70
2019-05-13T05:11:43.866Z,2.80
2019-05-13T05:14:27.280Z,3.23
2019-05-13T05:17:32.867Z,3.10
2019-05-13T05:20:25.109Z,3.23
2019-05-13T05:23:08.116Z,3.13
2019-05-13T05:25:41.625Z,3.10
2019-05-13T05:28:15.409Z,3.47
2019-05-13T05:30:58.721Z,2.83
2019-05-13T05:33:58.960Z,2.80
2019-05-13T05:36:48.587Z,3.50
2019-05-13T05:39:22.421Z,3.60
2019-05-13T05:41:53.521Z,3.20
2019-05-13T05:44:25.266Z,3.50
2019-05-13T05:46:56.491Z,3.43
2019-05-13T05:49:26.996Z,3.67
2019-05-13T05:52:07.094Z,2.90
2019-05-13T05:54:38.266Z,3.03
2019-05-13T05:57:08.893Z,3.37
2019-05-13T05:59:38.896Z,3.13
2019-05-13T06:02:08.612Z,2.80
2019-05-13T06:04:37.423Z,3.50
2019-05-13T06:07:06.242Z,3.10
2019-05-13T06:09:34.731Z,3.17
2019-05-13T06:12:03.237Z,3.30
2019-05-13T06:14:32.834Z,3.40
2019-05-13T06:17:02.655Z,3.60
2019-05-13T06:19:32.260Z,3.10
2019-05-13T06:22:02.344Z,3.70
2019-05-13T06:24:31.515Z,3.27
2019-05-13T06:27:01.718Z,3.17
2019-05-13T06:29:31.626Z,2.87
2019-05-13T06:32:15.295Z,3.23
2019-05-13T06:34:32.609Z,3.13
2019-05-13T06:37:02.174Z,3.70
2019-05-13T06:39:31.730Z,2.87
2019-05-13T06:42:02.729Z,2.57
2019-05-13T06:44:31.590Z,2.90
2019-05-13T06:47:02.652Z,2.70
2019-05-13T06:49:32.205Z,2.67
2019-05-13T06:52:01.726Z,2.90
2019-05-13T06:54:33.155Z,2.60
2019-05-13T06:57:04.313Z,3.00
2019-05-13T06:59:31.751Z,2.85
2019-05-13T07:02:02.034Z,2.65
2019-05-13T07:04:32.631Z,3.10
2019-05-13T07:07:12.375Z,2.67
2019-05-13T07:09:32.270Z,2.85
2019-05-13T07:12:02.848Z,2.58
2019-05-13T07:14:32.408Z,2.85
2019-05-13T07:17:02.081Z,2.77
2019-05-13T07:19:32.283Z,2.35
2019-05-13T07:22:03.182Z,2.70
2019-05-13T07:24:32.477Z,2.52
2019-05-13T07:27:01.777Z,2.62
2019-05-13T07:29:32.539Z,3.02
2019-05-13T07:32:01.836Z,2.30
2019-05-13T07:34:33.646Z,2.67
2019-05-13T07:37:02.366Z,2.20
2019-05-13T07:39:32.940Z,2.55
2019-05-13T07:42:05.267Z,2.30
2019-05-13T07:44:32.552Z,2.50
2019-05-13T07:47:03.421Z,2.37
2019-05-13T07:49:31.882Z,2.58
2019-05-13T07:52:01.646Z,2.47
2019-05-13T07:54:32.888Z,2.22
2019-05-13T07:57:02.056Z,2.50
2019-05-13T07:59:31.936Z,2.35
2019-05-13T08:02:02.055Z,2.20
2019-05-13T08:04:33.490Z,2.60
2019-05-13T08:07:02.210Z,2.12
2019-05-13T08:09:31.876Z,2.20
2019-05-13T08:12:09.860Z,2.58
2019-05-13T08:14:32.685Z,2.35
2019-05-13T08:17:02.626Z,2.90
2019-05-13T08:19:32.576Z,2.40
2019-05-13T08:22:02.132Z,2.58
2019-05-13T08:24:31.554Z,2.10
2019-05-13T08:27:02.227Z,1.82
2019-05-13T08:29:32.860Z,1.90
2019-05-13T08:32:02.833Z,2.10
2019-05-13T08:34:32.871Z,1.90
2019-05-13T08:37:02.801Z,1.90
2019-05-13T08:39:33.461Z,1.95
2019-05-13T08:42:12.948Z,2.47
2019-05-13T08:44:32.295Z,2.17
2019-05-13T08:47:03.111Z,2.00
2019-05-13T08:49:32.509Z,1.72
2019-05-13T08:52:01.841Z,1.60
2019-05-13T08:54:32.844Z,1.65
2019-05-13T08:57:02.820Z,1.82
2019-05-13T08:59:32.134Z,1.87
2019-05-13T09:04:31.725Z,2.00
2019-05-13T09:07:02.193Z,2.20
2019-05-13T09:09:31.597Z,2.00
2019-05-13T09:12:02.602Z,1.47
2019-05-13T09:14:32.409Z,1.62
2019-05-13T09:17:02.074Z,1.98
2019-05-13T09:19:32.144Z,1.80
2019-05-13T09:22:02.976Z,1.72
2019-05-13T09:24:37.237Z,1.67
2019-05-13T09:27:02.089Z,1.80
2019-05-13T09:29:32.232Z,2.00
2019-05-13T09:32:03.700Z,1.60
2019-05-13T09:34:32.748Z,1.80
2019-05-13T09:37:02.716Z,2.12
2019-05-13T09:39:32.419Z,1.70
2019-05-13T09:42:02.607Z,1.80
2019-05-13T09:44:32.850Z,1.90
2019-05-13T09:47:02.665Z,2.20
2019-05-13T09:49:32.775Z,2.02
2019-05-13T09:52:02.051Z,1.80
2019-05-13T09:54:32.562Z,1.62
2019-05-13T09:57:01.912Z,1.50
2019-05-13T09:59:31.857Z,1.92
2019-05-13T10:02:02.848Z,1.80
2019-05-13T10:07:02.809Z,2.10
2019-05-13T10:09:32.623Z,2.00
2019-05-13T10:12:03.067Z,1.20
2019-05-13T10:14:32.965Z,1.50
2019-05-13T10:17:05.985Z,1.47
2019-05-13T10:19:33.279Z,1.47
2019-05-13T10:22:01.991Z,1.67
2019-05-13T10:24:32.786Z,1.50
2019-05-13T10:27:02.524Z,1.93
2019-05-13T10:29:32.115Z,1.67
2019-05-13T10:32:02.736Z,1.30
2019-05-13T10:34:32.560Z,1.80
2019-05-13T10:37:02.141Z,1.57
2019-05-13T10:39:31.237Z,1.90
2019-05-13T10:42:03.047Z,1.50
2019-05-13T10:44:29.891Z,1.60
2019-05-13T10:46:58.549Z,1.40
2019-05-13T10:49:27.027Z,1.53
2019-05-13T10:51:55.504Z,1.67
2019-05-13T10:54:23.995Z,1.57
2019-05-13T10:56:54.217Z,1.47
2019-05-13T10:59:23.177Z,1.40
2019-05-13T11:01:51.828Z,1.30
2019-05-13T11:04:22.187Z,1.67
2019-05-13T11:06:52.424Z,1.60
2019-05-13T11:09:21.844Z,1.70
2019-05-13T11:11:52.815Z,1.53
2019-05-13T11:14:21.945Z,1.40
2019-05-13T11:16:52.254Z,1.40
2019-05-13T11:19:23.177Z,1.50
2019-05-13T11:21:51.861Z,1.40
2019-05-13T11:24:22.748Z,1.30
2019-05-13T11:26:53.131Z,1.60
2019-05-13T11:29:23.007Z,1.30
2019-05-13T11:31:52.357Z,1.60
2019-05-13T11:34:22.133Z,1.30
2019-05-13T11:36:53.382Z,1.50
2019-05-13T11:39:21.865Z,1.60
2019-05-13T11:41:50.643Z,1.70
2019-05-13T11:44:19.149Z,1.60
2019-05-13T11:46:47.657Z,1.60
2019-05-13T11:49:16.203Z,1.43
2019-05-13T11:51:45.071Z,1.53
2019-05-13T11:54:14.271Z,1.50
2019-05-13T11:56:49.193Z,1.60
2019-05-13T11:59:13.970Z,1.50
2019-05-13T12:01:42.952Z,1.20
2019-05-13T12:04:11.616Z,1.50
2019-05-13T12:06:48.021Z,1.43
2019-05-13T12:09:13.083Z,1.13
2019-05-13T12:11:40.777Z,1.60
2019-05-13T12:14:34.751Z,1.43
2019-05-13T12:16:42.339Z,1.50
2019-05-13T12:19:11.847Z,1.57
2019-05-13T12:21:43.252Z,1.23
2019-05-13T12:24:11.278Z,1.47
2019-05-13T12:26:43.080Z,1.60
2019-05-13T12:29:17.897Z,1.80
2019-05-13T12:31:40.501Z,1.30
2019-05-13T12:34:12.750Z,1.67
2019-05-13T12:36:43.012Z,1.63
2019-05-13T12:39:13.967Z,1.40
2019-05-13T12:41:42.075Z,1.57
2019-05-13T12:44:12.725Z,1.47
2019-05-13T12:46:41.509Z,1.60
2019-05-13T12:49:14.164Z,1.70
2019-05-13T12:51:43.853Z,1.50
2019-05-13T12:54:13.566Z,1.40
2019-05-13T12:56:42.520Z,1.40
2019-05-13T12:59:13.335Z,1.40
2019-05-13T13:01:42.301Z,1.40
2019-05-13T13:04:12.298Z,1.50
2019-05-13T13:06:45.111Z,1.50
2019-05-13T13:09:12.818Z,1.70
2019-05-13T13:11:43.661Z,1.60
2019-05-13T13:14:15.607Z,1.33
2019-05-13T13:16:42.353Z,1.40
2019-05-13T13:19:14.659Z,1.50
2019-05-13T13:21:41.509Z,1.70
2019-05-13T13:24:12.297Z,1.37
2019-05-13T13:26:42.741Z,1.30
2019-05-13T13:29:10.401Z,1.40
2019-05-13T13:31:42.721Z,1.20
2019-05-13T13:34:13.570Z,1.50
2019-05-13T13:36:39.459Z,1.20
2019-05-13T13:39:09.072Z,1.20
2019-05-13T13:41:37.544Z,1.40
2019-05-13T13:44:06.044Z,1.50
2019-05-13T13:46:42.491Z,1.53
2019-05-13T13:49:05.924Z,1.10
2019-05-13T13:51:34.655Z,1.33
2019-05-13T13:54:03.101Z,1.30
2019-05-13T13:56:32.596Z,1.70
2019-05-13T13:59:04.343Z,1.70
2019-05-13T14:01:33.334Z,1.20
2019-05-13T14:04:03.822Z,1.03
2019-05-13T14:06:25.036Z,1.40
2019-05-13T14:06:25.465Z,1.83
2019-05-13T14:07:22.255Z,1.27
2019-05-13T14:09:02.261Z,1.40
2019-05-13T14:11:33.121Z,1.17
2019-05-13T14:14:02.168Z,1.30
2019-05-13T14:16:34.901Z,1.10
2019-05-13T14:19:01.069Z,1.50
2019-05-13T14:21:32.243Z,1.43
2019-05-13T14:24:02.430Z,1.33
2019-05-13T14:26:32.428Z,1.40
2019-05-13T14:29:02.679Z,1.90
2019-05-13T14:31:32.402Z,1.20
2019-05-13T14:34:03.388Z,1.03
2019-05-13T14:36:30.787Z,1.20
2019-05-13T14:38:59.244Z,1.30
2019-05-13T14:41:27.733Z,1.70
2019-05-13T14:43:56.206Z,1.27
2019-05-13T14:46:35.367Z,1.40
2019-05-13T14:48:54.921Z,1.30
2019-05-13T14:51:23.412Z,1.20
2019-05-13T14:53:52.167Z,1.40
2019-05-13T14:56:22.190Z,1.07
2019-05-13T14:58:52.082Z,1.00
2019-05-13T15:01:22.693Z,1.30
2019-05-13T15:03:52.142Z,1.30
2019-05-13T15:06:22.062Z,1.10
2019-05-13T15:08:52.726Z,1.20
2019-05-13T15:11:21.920Z,1.03
2019-05-13T15:13:51.817Z,1.20
2019-05-13T15:16:22.413Z,1.30
2019-05-13T15:18:52.419Z,1.20
2019-05-13T15:21:21.459Z,1.50
2019-05-13T15:23:51.816Z,1.20
2019-05-13T15:26:22.244Z,1.20
2019-05-13T15:28:51.907Z,1.10
2019-05-13T15:31:22.122Z,1.37
2019-05-13T15:33:52.452Z,1.20
2019-05-13T15:36:22.539Z,1.20
2019-05-13T15:38:52.019Z,0.93
2019-05-13T15:41:20.804Z,1.37
2019-05-13T15:43:51.244Z,1.10
2019-05-13T15:46:21.791Z,1.10
2019-05-13T15:48:51.441Z,1.30
2019-05-13T15:51:22.104Z,1.00
2019-05-13T15:53:51.731Z,1.27
2019-05-13T15:56:22.342Z,1.17
2019-05-13T15:58:53.021Z,1.00
2019-05-13T16:01:23.007Z,1.13
2019-05-13T16:03:52.528Z,1.10
2019-05-13T16:06:21.369Z,1.20
2019-05-13T16:08:51.867Z,1.13
2019-05-13T16:11:21.973Z,1.10
2019-05-13T16:13:51.855Z,0.90
2019-05-13T16:16:21.832Z,1.50
2019-05-13T16:18:51.606Z,1.10
2019-05-13T16:21:20.227Z,1.07
2019-05-13T16:23:48.691Z,1.10
2019-05-13T16:26:17.153Z,1.10
2019-05-13T16:28:45.724Z,1.20
2019-05-13T16:31:14.169Z,1.00
2019-05-13T16:33:42.665Z,1.20
2019-05-13T16:36:12.638Z,1.40
2019-05-13T16:38:41.868Z,1.40
2019-05-13T16:41:12.392Z,1.20
2019-05-13T16:43:42.636Z,1.07
2019-05-13T16:46:12.148Z,1.57
2019-05-13T16:48:41.621Z,1.10
2019-05-13T16:51:12.332Z,2.43
2019-05-13T16:53:42.245Z,2.37
2019-05-13T16:56:25.279Z,1.50
2019-05-13T16:58:41.861Z,1.60
2019-05-13T17:01:11.718Z,1.23
2019-05-13T17:03:41.508Z,1.60
2019-05-13T17:06:12.466Z,1.60
2019-05-13T17:08:42.513Z,1.27
2019-05-13T17:11:11.740Z,1.50
2019-05-13T17:13:42.125Z,1.10
2019-05-13T17:16:10.940Z,1.20
2019-05-13T17:18:41.478Z,1.33
2019-05-13T17:21:09.689Z,1.10
2019-05-13T17:23:38.176Z,1.00
2019-05-13T17:26:06.640Z,1.30
2019-05-13T17:28:35.140Z,1.30
2019-05-13T17:31:03.587Z,1.10
2019-05-13T17:33:32.159Z,1.07
2019-05-13T17:36:01.936Z,1.20
2019-05-13T17:38:32.361Z,1.45
2019-05-13T17:41:02.157Z,1.30
2019-05-13T17:43:32.003Z,1.27
2019-05-13T17:46:00.803Z,2.63
2019-05-13T17:48:32.085Z,1.70
2019-05-13T17:51:01.407Z,1.50
2019-05-13T17:53:32.263Z,1.30
2019-05-13T17:56:02.151Z,3.23
2019-05-13T17:58:31.430Z,2.63
2019-05-13T18:01:01.723Z,1.70
2019-05-13T18:03:31.986Z,1.67
2019-05-13T18:06:02.297Z,1.30
2019-05-13T18:08:32.014Z,2.30
2019-05-13T18:11:02.181Z,2.70
2019-05-13T18:13:31.482Z,1.27
2019-05-13T18:16:02.447Z,1.60
2019-05-13T18:18:40.448Z,1.77
2019-05-13T18:21:01.517Z,1.20
2019-05-13T18:23:30.193Z,1.43
2019-05-13T18:25:58.652Z,1.50
2019-05-13T18:28:31.117Z,1.40
2019-05-13T18:30:57.325Z,1.70
2019-05-13T18:33:25.790Z,1.80
2019-05-13T18:35:54.267Z,1.60
2019-05-13T18:38:22.772Z,1.50
2019-05-13T18:40:52.623Z,1.70
2019-05-13T18:43:21.666Z,1.67
2019-05-13T18:45:52.533Z,1.73
2019-05-13T18:48:21.848Z,1.30
2019-05-13T18:50:52.350Z,1.60
2019-05-13T18:53:21.467Z,1.70
2019-05-13T18:55:52.409Z,1.70
2019-05-13T18:58:22.198Z,1.40
2019-05-13T19:00:52.229Z,1.77
2019-05-13T19:03:21.786Z,1.50
2019-05-13T19:05:51.985Z,1.27
2019-05-13T19:08:21.433Z,1.60
2019-05-13T19:10:52.031Z,1.50
2019-05-13T19:13:21.802Z,1.30
2019-05-13T19:15:51.674Z,1.40
2019-05-13T19:18:21.438Z,1.47
2019-05-13T19:20:51.347Z,1.30
2019-05-13T19:23:19.936Z,1.77
2019-05-13T19:25:48.434Z,1.70
2019-05-13T19:28:16.882Z,1.60
2019-05-13T19:30:45.354Z,1.73
2019-05-13T19:33:13.818Z,1.70
2019-05-13T19:35:42.709Z,1.50
2019-05-13T19:38:12.123Z,1.57
2019-05-13T19:40:41.881Z,1.73
2019-05-13T19:43:11.556Z,1.30
2019-05-13T19:45:41.623Z,1.50
2019-05-13T19:48:11.815Z,1.50
2019-05-13T19:50:41.610Z,1.50
2019-05-13T19:53:12.039Z,1.80
2019-05-13T19:55:41.474Z,1.80
2019-05-13T19:58:12.354Z,1.50
2019-05-13T20:00:42.412Z,1.90
2019-05-13T20:03:11.736Z,1.80
2019-05-13T20:05:41.513Z,1.67
2019-05-13T20:08:10.197Z,1.70
2019-05-13T20:10:38.682Z,1.70
2019-05-13T20:13:07.151Z,1.63
2019-05-13T20:15:35.633Z,1.93
2019-05-13T20:18:04.278Z,1.70
2019-05-13T20:20:33.038Z,1.77
2019-05-13T20:23:01.999Z,1.70
2019-05-13T20:25:31.196Z,1.73
2019-05-13T20:28:02.145Z,1.67
2019-05-13T20:30:30.073Z,1.73
2019-05-13T20:32:58.549Z,1.73
2019-05-13T20:35:27.019Z,1.80
2019-05-13T20:37:55.511Z,1.80
2019-05-13T20:40:24.040Z,1.73
2019-05-13T20:42:52.524Z,1.87
2019-05-13T20:45:22.449Z,1.87
2019-05-13T20:47:51.218Z,1.80
2019-05-13T20:50:21.748Z,1.73
2019-05-13T20:52:51.605Z,1.60
2019-05-13T20:55:22.079Z,1.80
2019-05-13T20:57:53.076Z,1.33
2019-05-13T21:00:20.943Z,1.60
2019-05-13T21:02:51.525Z,1.53
2019-05-13T21:05:21.829Z,1.30
2019-05-13T21:07:51.605Z,1.73
2019-05-13T21:10:21.072Z,1.40
2019-05-13T21:12:51.434Z,1.63
2019-05-13T21:15:20.091Z,1.47
2019-05-13T21:17:48.587Z,1.30
2019-05-13T21:20:22.161Z,1.43
2019-05-13T21:22:47.495Z,1.80
2019-05-13T21:25:16.859Z,1.80
2019-05-13T21:27:45.321Z,1.60
2019-05-13T21:30:14.041Z,2.00
2019-05-13T21:32:42.606Z,1.67
2019-05-13T21:35:11.982Z,1.67
2019-05-13T21:37:40.582Z,1.60
2019-05-13T21:40:11.149Z,1.70
2019-05-13T21:42:41.886Z,1.90
2019-05-13T21:45:11.236Z,1.77
2019-05-13T21:47:39.938Z,1.40
2019-05-13T21:50:11.345Z,1.90
2019-05-13T21:52:41.692Z,1.60
2019-05-13T21:55:11.340Z,2.33
2019-05-13T21:57:41.570Z,1.50
2019-05-13T22:00:13.267Z,1.80
2019-05-13T22:02:41.745Z,1.60
2019-05-13T22:05:11.713Z,1.73
2019-05-13T22:07:42.130Z,1.90
2019-05-13T22:10:11.900Z,1.83
2019-05-13T22:12:41.459Z,1.70
2019-05-13T22:15:11.489Z,1.70
2019-05-13T22:17:42.077Z,1.50
2019-05-13T22:20:12.264Z,1.53
2019-05-13T22:22:41.534Z,1.43
2019-05-13T22:25:12.178Z,1.50
2019-05-13T22:27:41.352Z,1.70
2019-05-13T22:30:11.886Z,2.03
2019-05-13T22:32:41.778Z,2.10
2019-05-13T22:35:11.334Z,2.07
2019-05-13T22:37:39.905Z,2.80
2019-05-13T22:40:11.296Z,2.10
2019-05-13T22:42:41.559Z,1.90
2019-05-13T22:45:11.764Z,2.00
2019-05-13T22:47:41.702Z,2.23
2019-05-13T22:50:12.820Z,1.93
2019-05-13T22:52:41.833Z,1.90
2019-05-13T22:55:11.530Z,1.97
2019-05-13T22:57:41.938Z,1.97
2019-05-13T23:00:11.844Z,1.70
2019-05-13T23:02:42.147Z,1.87
2019-05-13T23:05:11.402Z,1.83
2019-05-13T23:07:40.080Z,1.93
2019-05-13T23:10:11.641Z,1.60
2019-05-13T23:12:41.891Z,1.83
2019-05-13T23:15:11.960Z,1.70
2019-05-13T23:17:41.497Z,1.90
2019-05-13T23:20:10.714Z,1.77
2019-05-13T23:22:41.308Z,1.73
2019-05-13T23:25:11.986Z,1.57
2019-05-13T23:27:41.505Z,1.80
2019-05-13T23:30:11.678Z,1.50
2019-05-13T23:32:40.292Z,1.77
2019-05-13T23:35:10.983Z,1.70
2019-05-13T23:37:41.516Z,1.60
2019-05-13T23:40:11.844Z,1.87
2019-05-13T23:42:40.464Z,1.70
2019-05-13T23:45:11.473Z,1.73
2019-05-13T23:47:41.566Z,2.03
2019-05-13T23:50:12.473Z,2.00
2019-05-13T23:52:41.855Z,1.70
2019-05-13T23:55:11.020Z,1.93
2019-05-13T23:57:41.950Z,1.63
